sensor_id;sensor_type;location;lat;lon;timestamp;temperature;humidity
18143;DHT22;9197;50.930;3.140;2024-02-23T00:01:08;5.80;99.90
18143;DHT22;9197;50.930;3.140;2024-02-23T00:03:37;5.80;99.90
18143;DHT22;9197;50.930;3.140;2024-02-23T00:06:04;5.90;99.90
18143;DHT22;9197;50.930;3.140;2024-02-23T00:08:31;5.90;99.90
18143;DHT22;9197;50.930;3.140;2024-02-23T00:10:58;5.90;99.90
18143;DHT22;9197;50.930;3.140;2024-02-23T00:13:25;5.80;99.90
18143;DHT22;9197;50.930;3.140;2024-02-23T00:15:53;5.80;99.90
18143;DHT22;9197;50.930;3.140;2024-02-23T00:18:20;5.80;99.90
18143;DHT22;9197;50.930;3.140;2024-02-23T00:20:47;5.80;99.90
18143;DHT22;9197;50.930;3.140;2024-02-23T00:23:14;5.70;99.90
18143;DHT22;9197;50.930;3.140;2024-02-23T00:25:41;5.70;99.90
18143;DHT22;9197;50.930;3.140;2024-02-23T00:28:08;5.70;99.90
18143;DHT22;9197;50.930;3.140;2024-02-23T00:30:35;5.70;99.90
18143;DHT22;9197;50.930;3.140;2024-02-23T00:33:04;5.70;99.90
18143;DHT22;9197;50.930;3.140;2024-02-23T00:35:31;5.60;99.90
18143;DHT22;9197;50.930;3.140;2024-02-23T00:37:58;5.60;99.90
18143;DHT22;9197;50.930;3.140;2024-02-23T00:40:25;5.50;99.90
18143;DHT22;9197;50.930;3.140;2024-02-23T00:42:52;5.40;99.90
18143;DHT22;9197;50.930;3.140;2024-02-23T00:45:19;5.30;99.90
18143;DHT22;9197;50.930;3.140;2024-02-23T00:47:47;5.20;99.90
18143;DHT22;9197;50.930;3.140;2024-02-23T01:13:49;5.10;99.90
18143;DHT22;9197;50.930;3.140;2024-02-23T01:16:16;5.10;99.90
18143;DHT22;9197;50.930;3.140;2024-02-23T01:18:43;5.40;99.90
18143;DHT22;9197;50.930;3.140;2024-02-23T01:21:10;5.00;99.90
18143;DHT22;9197;50.930;3.140;2024-02-23T01:23:37;5.10;99.90
18143;DHT22;9197;50.930;3.140;2024-02-23T01:26:04;5.10;99.90
18143;DHT22;9197;50.930;3.140;2024-02-23T01:28:31;5.10;99.90
18143;DHT22;9197;50.930;3.140;2024-02-23T01:31:00;5.20;99.90
18143;DHT22;9197;50.930;3.140;2024-02-23T01:33:26;5.10;99.90
18143;DHT22;9197;50.930;3.140;2024-02-23T01:35:53;5.20;99.90
18143;DHT22;9197;50.930;3.140;2024-02-23T01:38:21;5.10;99.90
18143;DHT22;9197;50.930;3.140;2024-02-23T01:40:50;5.20;99.90
18143;DHT22;9197;50.930;3.140;2024-02-23T01:43:17;5.20;99.90
18143;DHT22;9197;50.930;3.140;2024-02-23T01:45:44;5.30;99.90
18143;DHT22;9197;50.930;3.140;2024-02-23T01:48:12;5.30;99.90
18143;DHT22;9197;50.930;3.140;2024-02-23T01:50:40;5.30;99.90
18143;DHT22;9197;50.930;3.140;2024-02-23T01:53:07;5.20;99.90
18143;DHT22;9197;50.930;3.140;2024-02-23T01:55:34;5.20;99.90
18143;DHT22;9197;50.930;3.140;2024-02-23T01:58:01;5.20;99.90
18143;DHT22;9197;50.930;3.140;2024-02-23T02:00:29;5.30;99.90
18143;DHT22;9197;50.930;3.140;2024-02-23T02:02:57;5.30;99.90
18143;DHT22;9197;50.930;3.140;2024-02-23T02:05:25;5.30;99.90
18143;DHT22;9197;50.930;3.140;2024-02-23T02:07:53;5.30;99.90
18143;DHT22;9197;50.930;3.140;2024-02-23T02:10:25;5.40;99.90
18143;DHT22;9197;50.930;3.140;2024-02-23T02:12:51;5.30;99.90
18143;DHT22;9197;50.930;3.140;2024-02-23T02:15:18;5.30;99.90
18143;DHT22;9197;50.930;3.140;2024-02-23T02:17:47;5.40;99.90
18143;DHT22;9197;50.930;3.140;2024-02-23T02:20:14;5.40;99.90
18143;DHT22;9197;50.930;3.140;2024-02-23T02:22:42;5.40;99.90
18143;DHT22;9197;50.930;3.140;2024-02-23T02:25:09;5.40;99.90
18143;DHT22;9197;50.930;3.140;2024-02-23T02:27:36;5.40;99.90
18143;DHT22;9197;50.930;3.140;2024-02-23T02:30:04;5.50;99.90
18143;DHT22;9197;50.930;3.140;2024-02-23T02:32:31;5.50;99.90
18143;DHT22;9197;50.930;3.140;2024-02-23T02:34:57;5.50;99.90
18143;DHT22;9197;50.930;3.140;2024-02-23T02:37:24;5.60;99.90
18143;DHT22;9197;50.930;3.140;2024-02-23T02:39:53;5.70;99.90
18143;DHT22;9197;50.930;3.140;2024-02-23T02:42:19;5.60;99.90
18143;DHT22;9197;50.930;3.140;2024-02-23T02:44:46;5.60;99.90
18143;DHT22;9197;50.930;3.140;2024-02-23T02:47:13;5.60;99.90
18143;DHT22;9197;50.930;3.140;2024-02-23T02:49:40;5.60;99.90
18143;DHT22;9197;50.930;3.140;2024-02-23T02:52:07;5.60;99.90
18143;DHT22;9197;50.930;3.140;2024-02-23T02:54:34;5.70;99.90
18143;DHT22;9197;50.930;3.140;2024-02-23T02:57:03;5.70;99.90
18143;DHT22;9197;50.930;3.140;2024-02-23T02:59:33;5.60;99.90
18143;DHT22;9197;50.930;3.140;2024-02-23T03:02:00;5.50;99.90
18143;DHT22;9197;50.930;3.140;2024-02-23T03:04:27;5.50;99.90
18143;DHT22;9197;50.930;3.140;2024-02-23T03:06:54;5.50;99.90
18143;DHT22;9197;50.930;3.140;2024-02-23T03:09:21;5.40;99.90
18143;DHT22;9197;50.930;3.140;2024-02-23T03:11:48;5.40;99.90
18143;DHT22;9197;50.930;3.140;2024-02-23T03:14:16;5.40;99.90
18143;DHT22;9197;50.930;3.140;2024-02-23T03:16:43;5.40;99.90
18143;DHT22;9197;50.930;3.140;2024-02-23T03:19:13;5.30;99.90
18143;DHT22;9197;50.930;3.140;2024-02-23T03:21:41;5.40;99.90
18143;DHT22;9197;50.930;3.140;2024-02-23T03:24:07;5.40;99.90
18143;DHT22;9197;50.930;3.140;2024-02-23T03:26:34;5.40;99.90
18143;DHT22;9197;50.930;3.140;2024-02-23T03:29:01;5.50;99.90
18143;DHT22;9197;50.930;3.140;2024-02-23T03:31:29;5.50;99.90
18143;DHT22;9197;50.930;3.140;2024-02-23T03:33:56;5.50;99.90
18143;DHT22;9197;50.930;3.140;2024-02-23T03:36:23;5.60;99.90
18143;DHT22;9197;50.930;3.140;2024-02-23T03:38:50;5.50;99.90
18143;DHT22;9197;50.930;3.140;2024-02-23T03:41:17;5.60;99.90
18143;DHT22;9197;50.930;3.140;2024-02-23T03:43:44;5.60;99.90
18143;DHT22;9197;50.930;3.140;2024-02-23T03:46:11;5.60;99.90
18143;DHT22;9197;50.930;3.140;2024-02-23T03:48:41;5.70;99.90
18143;DHT22;9197;50.930;3.140;2024-02-23T03:51:09;5.70;99.90
18143;DHT22;9197;50.930;3.140;2024-02-23T03:53:36;5.80;99.90
18143;DHT22;9197;50.930;3.140;2024-02-23T03:56:03;5.80;99.90
18143;DHT22;9197;50.930;3.140;2024-02-23T03:58:30;5.80;99.90
18143;DHT22;9197;50.930;3.140;2024-02-23T04:00:57;5.90;99.90
18143;DHT22;9197;50.930;3.140;2024-02-23T04:03:24;5.90;99.90
18143;DHT22;9197;50.930;3.140;2024-02-23T04:05:52;5.90;99.90
18143;DHT22;9197;50.930;3.140;2024-02-23T04:08:19;5.90;99.90
18143;DHT22;9197;50.930;3.140;2024-02-23T04:10:46;5.90;99.90
18143;DHT22;9197;50.930;3.140;2024-02-23T04:13:12;5.90;99.90
18143;DHT22;9197;50.930;3.140;2024-02-23T04:15:40;5.90;99.90
18143;DHT22;9197;50.930;3.140;2024-02-23T04:18:07;5.90;99.90
18143;DHT22;9197;50.930;3.140;2024-02-23T04:20:34;5.90;99.90
18143;DHT22;9197;50.930;3.140;2024-02-23T04:23:02;5.80;99.90
18143;DHT22;9197;50.930;3.140;2024-02-23T04:25:29;5.80;99.90
18143;DHT22;9197;50.930;3.140;2024-02-23T04:27:56;5.80;99.90
18143;DHT22;9197;50.930;3.140;2024-02-23T04:30:22;5.80;99.90
18143;DHT22;9197;50.930;3.140;2024-02-23T04:32:48;5.70;99.90
18143;DHT22;9197;50.930;3.140;2024-02-23T04:35:15;5.70;99.90
18143;DHT22;9197;50.930;3.140;2024-02-23T04:37:43;5.60;99.90
18143;DHT22;9197;50.930;3.140;2024-02-23T04:40:12;5.60;99.90
18143;DHT22;9197;50.930;3.140;2024-02-23T04:42:39;5.60;99.90
18143;DHT22;9197;50.930;3.140;2024-02-23T04:45:07;5.50;99.90
18143;DHT22;9197;50.930;3.140;2024-02-23T04:47:35;5.50;99.90
18143;DHT22;9197;50.930;3.140;2024-02-23T04:50:01;5.40;99.90
18143;DHT22;9197;50.930;3.140;2024-02-23T04:52:29;5.50;99.90
18143;DHT22;9197;50.930;3.140;2024-02-23T04:54:56;5.40;99.90
18143;DHT22;9197;50.930;3.140;2024-02-23T04:57:24;5.40;99.90
18143;DHT22;9197;50.930;3.140;2024-02-23T04:59:51;5.40;99.90
18143;DHT22;9197;50.930;3.140;2024-02-23T05:02:18;5.50;99.90
18143;DHT22;9197;50.930;3.140;2024-02-23T05:04:44;5.50;99.90
18143;DHT22;9197;50.930;3.140;2024-02-23T05:07:12;5.50;99.90
18143;DHT22;9197;50.930;3.140;2024-02-23T05:09:38;5.60;99.90
18143;DHT22;9197;50.930;3.140;2024-02-23T05:12:07;5.60;99.90
18143;DHT22;9197;50.930;3.140;2024-02-23T05:14:36;5.60;99.90
18143;DHT22;9197;50.930;3.140;2024-02-23T05:17:03;5.60;99.90
18143;DHT22;9197;50.930;3.140;2024-02-23T05:19:30;5.60;99.90
18143;DHT22;9197;50.930;3.140;2024-02-23T05:21:57;5.50;99.90
18143;DHT22;9197;50.930;3.140;2024-02-23T05:24:24;5.50;99.90
18143;DHT22;9197;50.930;3.140;2024-02-23T05:26:51;5.50;99.90
18143;DHT22;9197;50.930;3.140;2024-02-23T05:29:18;5.50;99.90
18143;DHT22;9197;50.930;3.140;2024-02-23T05:31:51;5.50;99.90
18143;DHT22;9197;50.930;3.140;2024-02-23T05:34:18;5.50;99.90
18143;DHT22;9197;50.930;3.140;2024-02-23T05:36:45;5.60;99.90
18143;DHT22;9197;50.930;3.140;2024-02-23T05:39:13;5.50;99.90
18143;DHT22;9197;50.930;3.140;2024-02-23T05:41:40;5.50;99.90
18143;DHT22;9197;50.930;3.140;2024-02-23T05:44:08;5.60;99.90
18143;DHT22;9197;50.930;3.140;2024-02-23T05:46:35;5.60;99.90
18143;DHT22;9197;50.930;3.140;2024-02-23T05:49:04;5.60;99.90
18143;DHT22;9197;50.930;3.140;2024-02-23T05:51:31;5.60;99.90
18143;DHT22;9197;50.930;3.140;2024-02-23T05:53:58;5.70;99.90
18143;DHT22;9197;50.930;3.140;2024-02-23T05:56:25;5.70;99.90
18143;DHT22;9197;50.930;3.140;2024-02-23T05:58:52;5.70;99.90
18143;DHT22;9197;50.930;3.140;2024-02-23T06:01:20;5.70;99.90
18143;DHT22;9197;50.930;3.140;2024-02-23T06:03:46;5.70;99.90
18143;DHT22;9197;50.930;3.140;2024-02-23T06:06:15;5.70;99.90
18143;DHT22;9197;50.930;3.140;2024-02-23T06:08:42;5.80;99.90
18143;DHT22;9197;50.930;3.140;2024-02-23T06:11:09;5.80;99.90
18143;DHT22;9197;50.930;3.140;2024-02-23T06:13:36;5.80;99.90
18143;DHT22;9197;50.930;3.140;2024-02-23T06:16:04;5.80;99.90
18143;DHT22;9197;50.930;3.140;2024-02-23T06:18:30;5.90;99.90
18143;DHT22;9197;50.930;3.140;2024-02-23T06:20:57;5.90;99.90
18143;DHT22;9197;50.930;3.140;2024-02-23T06:23:26;5.90;99.90
18143;DHT22;9197;50.930;3.140;2024-02-23T06:25:52;5.90;99.90
18143;DHT22;9197;50.930;3.140;2024-02-23T06:28:19;5.90;99.90
18143;DHT22;9197;50.930;3.140;2024-02-23T06:30:46;5.90;99.90
18143;DHT22;9197;50.930;3.140;2024-02-23T06:33:13;5.90;99.90
18143;DHT22;9197;50.930;3.140;2024-02-23T06:35:40;5.80;99.90
18143;DHT22;9197;50.930;3.140;2024-02-23T06:38:07;5.70;99.90
18143;DHT22;9197;50.930;3.140;2024-02-23T06:40:36;5.60;99.90
18143;DHT22;9197;50.930;3.140;2024-02-23T06:43:04;5.60;99.90
18143;DHT22;9197;50.930;3.140;2024-02-23T06:45:30;5.50;99.90
18143;DHT22;9197;50.930;3.140;2024-02-23T06:47:57;5.50;99.90
18143;DHT22;9197;50.930;3.140;2024-02-23T06:50:24;5.50;99.90
18143;DHT22;9197;50.930;3.140;2024-02-23T06:52:51;5.50;99.90
18143;DHT22;9197;50.930;3.140;2024-02-23T06:55:18;5.60;99.90
18143;DHT22;9197;50.930;3.140;2024-02-23T06:57:46;5.50;99.90
18143;DHT22;9197;50.930;3.140;2024-02-23T07:00:14;5.50;99.90
18143;DHT22;9197;50.930;3.140;2024-02-23T07:02:41;5.50;99.90
18143;DHT22;9197;50.930;3.140;2024-02-23T07:05:08;5.40;99.90
18143;DHT22;9197;50.930;3.140;2024-02-23T07:07:35;5.40;99.90
18143;DHT22;9197;50.930;3.140;2024-02-23T07:10:02;5.40;99.90
18143;DHT22;9197;50.930;3.140;2024-02-23T07:12:29;5.40;99.90
18143;DHT22;9197;50.930;3.140;2024-02-23T07:14:57;5.40;99.90
18143;DHT22;9197;50.930;3.140;2024-02-23T07:17:24;5.50;99.90
18143;DHT22;9197;50.930;3.140;2024-02-23T07:19:51;5.50;99.90
18143;DHT22;9197;50.930;3.140;2024-02-23T07:22:18;5.50;99.90
18143;DHT22;9197;50.930;3.140;2024-02-23T07:24:46;5.50;99.90
18143;DHT22;9197;50.930;3.140;2024-02-23T07:27:13;5.60;99.90
18143;DHT22;9197;50.930;3.140;2024-02-23T07:29:40;5.60;99.90
18143;DHT22;9197;50.930;3.140;2024-02-23T07:32:08;5.60;99.90
18143;DHT22;9197;50.930;3.140;2024-02-23T07:34:35;5.60;99.90
18143;DHT22;9197;50.930;3.140;2024-02-23T07:37:03;5.60;99.90
18143;DHT22;9197;50.930;3.140;2024-02-23T07:39:30;5.60;99.90
18143;DHT22;9197;50.930;3.140;2024-02-23T07:41:57;5.70;99.90
18143;DHT22;9197;50.930;3.140;2024-02-23T07:44:24;5.60;99.90
18143;DHT22;9197;50.930;3.140;2024-02-23T07:46:51;5.70;99.90
18143;DHT22;9197;50.930;3.140;2024-02-23T07:49:21;5.70;99.90
18143;DHT22;9197;50.930;3.140;2024-02-23T07:51:49;5.80;99.90
18143;DHT22;9197;50.930;3.140;2024-02-23T07:54:16;5.80;99.90
18143;DHT22;9197;50.930;3.140;2024-02-23T07:56:43;5.90;99.90
18143;DHT22;9197;50.930;3.140;2024-02-23T07:59:10;5.90;99.90
18143;DHT22;9197;50.930;3.140;2024-02-23T08:01:37;5.90;99.90
18143;DHT22;9197;50.930;3.140;2024-02-23T08:04:05;5.90;99.90
18143;DHT22;9197;50.930;3.140;2024-02-23T08:06:34;5.90;99.90
18143;DHT22;9197;50.930;3.140;2024-02-23T08:09:01;5.80;99.90
18143;DHT22;9197;50.930;3.140;2024-02-23T08:11:28;5.80;99.90
18143;DHT22;9197;50.930;3.140;2024-02-23T08:13:55;5.80;99.90
18143;DHT22;9197;50.930;3.140;2024-02-23T08:16:22;5.80;99.90
18143;DHT22;9197;50.930;3.140;2024-02-23T08:18:49;5.80;99.90
18143;DHT22;9197;50.930;3.140;2024-02-23T08:21:16;5.80;99.90
18143;DHT22;9197;50.930;3.140;2024-02-23T08:23:45;5.80;99.90
18143;DHT22;9197;50.930;3.140;2024-02-23T08:26:12;5.90;99.90
18143;DHT22;9197;50.930;3.140;2024-02-23T08:28:40;5.90;99.90
18143;DHT22;9197;50.930;3.140;2024-02-23T08:31:07;5.90;99.90
18143;DHT22;9197;50.930;3.140;2024-02-23T08:33:34;6.00;99.90
18143;DHT22;9197;50.930;3.140;2024-02-23T08:36:01;6.00;99.90
18143;DHT22;9197;50.930;3.140;2024-02-23T08:38:31;6.00;99.90
18143;DHT22;9197;50.930;3.140;2024-02-23T08:40:59;6.10;99.90
18143;DHT22;9197;50.930;3.140;2024-02-23T08:43:26;6.10;99.90
18143;DHT22;9197;50.930;3.140;2024-02-23T08:45:53;6.10;99.90
18143;DHT22;9197;50.930;3.140;2024-02-23T08:48:20;6.20;99.90
18143;DHT22;9197;50.930;3.140;2024-02-23T08:50:47;6.20;99.90
18143;DHT22;9197;50.930;3.140;2024-02-23T08:53:14;6.30;99.90
18143;DHT22;9197;50.930;3.140;2024-02-23T08:55:41;6.30;99.90
18143;DHT22;9197;50.930;3.140;2024-02-23T08:58:09;6.40;99.90
18143;DHT22;9197;50.930;3.140;2024-02-23T09:00:36;6.40;99.90
18143;DHT22;9197;50.930;3.140;2024-02-23T09:03:04;6.50;99.90
18143;DHT22;9197;50.930;3.140;2024-02-23T09:05:31;6.50;99.90
18143;DHT22;9197;50.930;3.140;2024-02-23T09:07:58;6.30;99.90
18143;DHT22;9197;50.930;3.140;2024-02-23T09:10:25;6.30;99.90
18143;DHT22;9197;50.930;3.140;2024-02-23T09:12:52;6.30;99.90
18143;DHT22;9197;50.930;3.140;2024-02-23T09:15:20;6.30;99.90
18143;DHT22;9197;50.930;3.140;2024-02-23T09:17:47;6.30;99.90
18143;DHT22;9197;50.930;3.140;2024-02-23T09:20:14;6.40;99.90
18143;DHT22;9197;50.930;3.140;2024-02-23T09:22:41;6.50;99.90
18143;DHT22;9197;50.930;3.140;2024-02-23T09:25:08;6.50;99.90
18143;DHT22;9197;50.930;3.140;2024-02-23T09:27:35;6.50;99.90
18143;DHT22;9197;50.930;3.140;2024-02-23T09:30:10;6.50;99.90
18143;DHT22;9197;50.930;3.140;2024-02-23T09:32:38;6.60;99.90
18143;DHT22;9197;50.930;3.140;2024-02-23T09:35:06;6.60;99.90
18143;DHT22;9197;50.930;3.140;2024-02-23T09:37:33;6.70;99.90
18143;DHT22;9197;50.930;3.140;2024-02-23T09:40:00;6.70;99.90
18143;DHT22;9197;50.930;3.140;2024-02-23T09:42:28;6.80;99.90
18143;DHT22;9197;50.930;3.140;2024-02-23T09:44:58;6.90;99.90
18143;DHT22;9197;50.930;3.140;2024-02-23T09:47:27;7.00;99.90
18143;DHT22;9197;50.930;3.140;2024-02-23T09:49:55;7.00;99.90
18143;DHT22;9197;50.930;3.140;2024-02-23T09:52:23;7.10;99.90
18143;DHT22;9197;50.930;3.140;2024-02-23T09:54:49;7.10;99.90
18143;DHT22;9197;50.930;3.140;2024-02-23T09:57:17;7.20;99.90
18143;DHT22;9197;50.930;3.140;2024-02-23T09:59:44;7.30;99.90
18143;DHT22;9197;50.930;3.140;2024-02-23T10:02:15;7.30;99.90
18143;DHT22;9197;50.930;3.140;2024-02-23T10:04:43;7.40;99.90
18143;DHT22;9197;50.930;3.140;2024-02-23T10:07:14;7.40;99.90
18143;DHT22;9197;50.930;3.140;2024-02-23T10:09:41;7.50;99.90
18143;DHT22;9197;50.930;3.140;2024-02-23T10:12:08;7.50;99.90
18143;DHT22;9197;50.930;3.140;2024-02-23T10:14:35;7.60;99.90
18143;DHT22;9197;50.930;3.140;2024-02-23T10:17:02;7.70;99.90
18143;DHT22;9197;50.930;3.140;2024-02-23T10:19:29;7.60;99.90
18143;DHT22;9197;50.930;3.140;2024-02-23T10:21:56;7.60;99.90
18143;DHT22;9197;50.930;3.140;2024-02-23T10:24:25;7.60;99.90
18143;DHT22;9197;50.930;3.140;2024-02-23T10:26:52;7.60;99.90
18143;DHT22;9197;50.930;3.140;2024-02-23T10:29:19;7.60;99.90
18143;DHT22;9197;50.930;3.140;2024-02-23T10:31:47;7.70;99.90
18143;DHT22;9197;50.930;3.140;2024-02-23T10:34:18;7.70;99.90
18143;DHT22;9197;50.930;3.140;2024-02-23T10:36:46;7.80;99.90
18143;DHT22;9197;50.930;3.140;2024-02-23T10:39:16;7.80;99.90
18143;DHT22;9197;50.930;3.140;2024-02-23T10:41:47;7.80;99.90
18143;DHT22;9197;50.930;3.140;2024-02-23T10:44:17;7.80;99.90
18143;DHT22;9197;50.930;3.140;2024-02-23T10:46:45;7.70;99.90
18143;DHT22;9197;50.930;3.140;2024-02-23T10:49:14;7.70;99.90
18143;DHT22;9197;50.930;3.140;2024-02-23T10:51:42;7.60;99.90
18143;DHT22;9197;50.930;3.140;2024-02-23T10:54:11;7.60;99.90
18143;DHT22;9197;50.930;3.140;2024-02-23T10:56:39;7.60;99.90
18143;DHT22;9197;50.930;3.140;2024-02-23T10:59:08;7.60;99.90
18143;DHT22;9197;50.930;3.140;2024-02-23T11:01:35;7.50;99.90
18143;DHT22;9197;50.930;3.140;2024-02-23T11:04:06;7.50;99.90
18143;DHT22;9197;50.930;3.140;2024-02-23T11:06:34;7.50;99.90
18143;DHT22;9197;50.930;3.140;2024-02-23T11:09:07;7.60;99.90
18143;DHT22;9197;50.930;3.140;2024-02-23T11:11:34;7.70;99.90
18143;DHT22;9197;50.930;3.140;2024-02-23T11:14:08;7.70;99.90
18143;DHT22;9197;50.930;3.140;2024-02-23T11:16:39;7.80;99.90
18143;DHT22;9197;50.930;3.140;2024-02-23T11:19:08;7.70;99.90
18143;DHT22;9197;50.930;3.140;2024-02-23T11:21:37;7.70;99.90
18143;DHT22;9197;50.930;3.140;2024-02-23T11:24:05;7.80;99.90
18143;DHT22;9197;50.930;3.140;2024-02-23T11:26:32;7.70;99.90
18143;DHT22;9197;50.930;3.140;2024-02-23T11:29:11;7.70;99.90
18143;DHT22;9197;50.930;3.140;2024-02-23T11:31:45;7.90;99.90
18143;DHT22;9197;50.930;3.140;2024-02-23T11:34:12;7.90;99.90
18143;DHT22;9197;50.930;3.140;2024-02-23T11:36:39;8.00;99.90
18143;DHT22;9197;50.930;3.140;2024-02-23T11:39:06;7.90;99.90
18143;DHT22;9197;50.930;3.140;2024-02-23T11:41:37;7.90;99.90
18143;DHT22;9197;50.930;3.140;2024-02-23T11:44:04;7.90;99.90
18143;DHT22;9197;50.930;3.140;2024-02-23T11:46:34;7.90;99.90
18143;DHT22;9197;50.930;3.140;2024-02-23T11:49:01;7.90;99.90
18143;DHT22;9197;50.930;3.140;2024-02-23T11:51:28;7.90;99.90
18143;DHT22;9197;50.930;3.140;2024-02-23T11:53:56;7.90;99.90
18143;DHT22;9197;50.930;3.140;2024-02-23T11:56:26;7.90;99.90
18143;DHT22;9197;50.930;3.140;2024-02-23T11:58:53;7.90;99.90
18143;DHT22;9197;50.930;3.140;2024-02-23T12:01:20;7.90;99.90
18143;DHT22;9197;50.930;3.140;2024-02-23T12:03:49;8.00;99.90
18143;DHT22;9197;50.930;3.140;2024-02-23T12:06:17;8.10;99.90
18143;DHT22;9197;50.930;3.140;2024-02-23T12:08:44;8.10;99.90
18143;DHT22;9197;50.930;3.140;2024-02-23T12:11:12;8.10;99.90
18143;DHT22;9197;50.930;3.140;2024-02-23T12:13:39;8.10;99.90
18143;DHT22;9197;50.930;3.140;2024-02-23T12:16:07;8.20;99.90
18143;DHT22;9197;50.930;3.140;2024-02-23T12:18:35;8.40;99.90
18143;DHT22;9197;50.930;3.140;2024-02-23T12:21:05;8.90;99.90
18143;DHT22;9197;50.930;3.140;2024-02-23T12:23:40;9.30;99.90
18143;DHT22;9197;50.930;3.140;2024-02-23T12:26:07;9.60;99.90
18143;DHT22;9197;50.930;3.140;2024-02-23T12:28:34;9.60;99.90
18143;DHT22;9197;50.930;3.140;2024-02-23T12:31:02;9.60;99.90
18143;DHT22;9197;50.930;3.140;2024-02-23T12:33:30;9.70;99.90
18143;DHT22;9197;50.930;3.140;2024-02-23T12:35:58;9.90;99.90
18143;DHT22;9197;50.930;3.140;2024-02-23T12:38:27;9.80;99.90
18143;DHT22;9197;50.930;3.140;2024-02-23T12:40:54;9.60;99.90
18143;DHT22;9197;50.930;3.140;2024-02-23T12:43:21;9.40;99.90
18143;DHT22;9197;50.930;3.140;2024-02-23T12:45:50;9.30;99.90
18143;DHT22;9197;50.930;3.140;2024-02-23T12:48:17;9.10;99.90
18143;DHT22;9197;50.930;3.140;2024-02-23T12:50:44;8.90;99.90
18143;DHT22;9197;50.930;3.140;2024-02-23T12:53:32;8.60;99.90
18143;DHT22;9197;50.930;3.140;2024-02-23T12:56:00;8.10;99.90
18143;DHT22;9197;50.930;3.140;2024-02-23T12:58:27;7.90;99.90
18143;DHT22;9197;50.930;3.140;2024-02-23T13:00:55;7.90;99.90
18143;DHT22;9197;50.930;3.140;2024-02-23T13:03:22;8.00;99.90
18143;DHT22;9197;50.930;3.140;2024-02-23T13:05:49;8.10;99.90
18143;DHT22;9197;50.930;3.140;2024-02-23T13:08:16;8.10;99.90
18143;DHT22;9197;50.930;3.140;2024-02-23T13:10:45;8.30;99.90
18143;DHT22;9197;50.930;3.140;2024-02-23T13:13:12;8.40;99.90
18143;DHT22;9197;50.930;3.140;2024-02-23T13:15:40;8.60;99.90
18143;DHT22;9197;50.930;3.140;2024-02-23T13:18:07;8.80;99.90
18143;DHT22;9197;50.930;3.140;2024-02-23T13:20:34;9.10;99.90
18143;DHT22;9197;50.930;3.140;2024-02-23T13:23:01;9.30;99.90
18143;DHT22;9197;50.930;3.140;2024-02-23T13:25:28;9.50;99.90
18143;DHT22;9197;50.930;3.140;2024-02-23T13:27:57;9.50;99.90
18143;DHT22;9197;50.930;3.140;2024-02-23T13:30:24;9.60;99.90
18143;DHT22;9197;50.930;3.140;2024-02-23T13:32:52;9.50;99.90
18143;DHT22;9197;50.930;3.140;2024-02-23T13:35:19;9.50;99.90
18143;DHT22;9197;50.930;3.140;2024-02-23T13:37:46;9.40;99.90
18143;DHT22;9197;50.930;3.140;2024-02-23T13:40:14;9.40;99.90
18143;DHT22;9197;50.930;3.140;2024-02-23T13:42:41;9.20;99.90
18143;DHT22;9197;50.930;3.140;2024-02-23T13:45:10;9.10;99.90
18143;DHT22;9197;50.930;3.140;2024-02-23T13:47:39;8.90;99.90
18143;DHT22;9197;50.930;3.140;2024-02-23T13:50:07;8.60;99.90
18143;DHT22;9197;50.930;3.140;2024-02-23T13:52:34;8.40;99.90
18143;DHT22;9197;50.930;3.140;2024-02-23T13:55:01;8.50;99.90
18143;DHT22;9197;50.930;3.140;2024-02-23T13:57:29;8.70;99.90
18143;DHT22;9197;50.930;3.140;2024-02-23T13:59:55;8.80;99.90
18143;DHT22;9197;50.930;3.140;2024-02-23T14:02:26;8.80;99.90
18143;DHT22;9197;50.930;3.140;2024-02-23T14:05:01;8.60;99.90
18143;DHT22;9197;50.930;3.140;2024-02-23T14:07:28;8.60;99.90
18143;DHT22;9197;50.930;3.140;2024-02-23T14:09:55;8.50;99.90
18143;DHT22;9197;50.930;3.140;2024-02-23T14:12:22;8.40;99.90
18143;DHT22;9197;50.930;3.140;2024-02-23T14:14:49;8.40;99.90
18143;DHT22;9197;50.930;3.140;2024-02-23T14:17:16;8.40;99.90
18143;DHT22;9197;50.930;3.140;2024-02-23T14:19:44;8.30;99.90
18143;DHT22;9197;50.930;3.140;2024-02-23T14:22:11;8.30;99.90
18143;DHT22;9197;50.930;3.140;2024-02-23T14:24:38;8.20;99.90
18143;DHT22;9197;50.930;3.140;2024-02-23T14:27:06;8.20;99.90
18143;DHT22;9197;50.930;3.140;2024-02-23T14:29:34;8.30;99.90
18143;DHT22;9197;50.930;3.140;2024-02-23T14:32:00;8.20;99.90
18143;DHT22;9197;50.930;3.140;2024-02-23T14:34:27;7.90;99.90
18143;DHT22;9197;50.930;3.140;2024-02-23T14:36:57;7.70;99.90
18143;DHT22;9197;50.930;3.140;2024-02-23T14:39:23;7.60;99.90
18143;DHT22;9197;50.930;3.140;2024-02-23T14:41:50;7.10;99.90
18143;DHT22;9197;50.930;3.140;2024-02-23T14:44:17;6.80;99.90
18143;DHT22;9197;50.930;3.140;2024-02-23T14:46:44;6.70;99.90
18143;DHT22;9197;50.930;3.140;2024-02-23T14:49:11;6.60;99.90
18143;DHT22;9197;50.930;3.140;2024-02-23T14:51:38;6.70;99.90
18143;DHT22;9197;50.930;3.140;2024-02-23T14:54:09;6.80;99.90
18143;DHT22;9197;50.930;3.140;2024-02-23T14:56:36;7.00;99.90
18143;DHT22;9197;50.930;3.140;2024-02-23T14:59:03;7.30;99.90
18143;DHT22;9197;50.930;3.140;2024-02-23T15:01:30;7.40;99.90
18143;DHT22;9197;50.930;3.140;2024-02-23T15:03:57;7.60;99.90
18143;DHT22;9197;50.930;3.140;2024-02-23T15:06:24;7.70;99.90
18143;DHT22;9197;50.930;3.140;2024-02-23T15:08:50;7.60;99.90
18143;DHT22;9197;50.930;3.140;2024-02-23T15:11:19;7.70;99.90
18143;DHT22;9197;50.930;3.140;2024-02-23T15:13:47;7.70;99.90
18143;DHT22;9197;50.930;3.140;2024-02-23T15:16:14;7.70;99.90
18143;DHT22;9197;50.930;3.140;2024-02-23T15:18:41;7.70;99.90
18143;DHT22;9197;50.930;3.140;2024-02-23T15:21:07;7.70;99.90
18143;DHT22;9197;50.930;3.140;2024-02-23T15:23:34;7.60;99.90
18143;DHT22;9197;50.930;3.140;2024-02-23T15:26:02;7.40;99.90
18143;DHT22;9197;50.930;3.140;2024-02-23T15:28:30;7.30;99.90
18143;DHT22;9197;50.930;3.140;2024-02-23T15:30:57;7.30;99.90
18143;DHT22;9197;50.930;3.140;2024-02-23T15:33:24;7.20;99.90
18143;DHT22;9197;50.930;3.140;2024-02-23T15:35:51;7.10;99.90
18143;DHT22;9197;50.930;3.140;2024-02-23T15:38:18;7.10;99.90
18143;DHT22;9197;50.930;3.140;2024-02-23T15:40:44;7.10;99.90
18143;DHT22;9197;50.930;3.140;2024-02-23T15:43:12;7.00;99.90
18143;DHT22;9197;50.930;3.140;2024-02-23T15:45:41;7.10;99.90
18143;DHT22;9197;50.930;3.140;2024-02-23T15:48:08;7.10;99.90
18143;DHT22;9197;50.930;3.140;2024-02-23T15:50:36;7.10;99.90
18143;DHT22;9197;50.930;3.140;2024-02-23T15:53:03;7.10;99.90
18143;DHT22;9197;50.930;3.140;2024-02-23T15:55:30;6.90;99.90
18143;DHT22;9197;50.930;3.140;2024-02-23T15:57:57;6.70;99.90
18143;DHT22;9197;50.930;3.140;2024-02-23T16:00:24;6.40;99.90
18143;DHT22;9197;50.930;3.140;2024-02-23T16:02:52;6.30;99.90
18143;DHT22;9197;50.930;3.140;2024-02-23T16:05:19;6.20;99.90
18143;DHT22;9197;50.930;3.140;2024-02-23T16:07:46;6.20;99.90
18143;DHT22;9197;50.930;3.140;2024-02-23T16:10:14;6.10;99.90
18143;DHT22;9197;50.930;3.140;2024-02-23T16:12:41;6.10;99.90
18143;DHT22;9197;50.930;3.140;2024-02-23T16:15:09;6.10;99.90
18143;DHT22;9197;50.930;3.140;2024-02-23T16:17:36;6.10;99.90
18143;DHT22;9197;50.930;3.140;2024-02-23T16:20:05;6.10;99.90
18143;DHT22;9197;50.930;3.140;2024-02-23T16:22:32;6.10;99.90
18143;DHT22;9197;50.930;3.140;2024-02-23T16:24:59;6.10;99.90
18143;DHT22;9197;50.930;3.140;2024-02-23T16:27:26;6.10;99.90